Time;durP1;ratioP1;P1;durP2;ratioP2;P2;SDS_P1;SDS_P2;PMS_P1;PMS_P2;Temp;Humidity;BMP_temperature;BMP_pressure;BME280_temperature;BME280_humidity;BME280_pressure;Samples;Min_cycle;Max_cycle;Signal;HPM_P1;HPM_P2
2020/12/21 08:10:18;;;;;;;24.47;10.50;;;18.60;53.10;;;;;;4244662;27;20362;-62
2020/12/21 08:12:40;;;;;;;17.40;8.30;;;18.60;53.60;;;;;;4228267;28;20109;-62
2020/12/21 08:15:01;;;;;;;19.25;8.65;;;18.60;54.10;;;;;;4228289;28;20054;-62
2020/12/21 08:17:30;;;;;;;16.10;8.02;;;18.60;53.20;;;;;;4219028;28;20108;-62
2020/12/21 08:19:51;;;;;;;15.55;8.35;;;18.60;53.00;;;;;;4218836;28;20126;-62
2020/12/21 08:22:19;;;;;;;13.07;7.32;;;18.60;52.70;;;;;;4219169;28;20120;-61
2020/12/21 08:24:39;;;;;;;13.25;7.47;;;18.70;52.30;;;;;;4217442;28;20183;-61
2020/12/21 08:27:04;;;;;;;13.20;6.88;;;18.60;52.00;;;;;;4220960;28;20109;-61
2020/12/21 08:29:26;;;;;;;9.82;6.40;;;18.60;52.40;;;;;;4216529;28;20051;-61
2020/12/21 08:31:47;;;;;;;12.75;7.25;;;18.60;51.70;;;;;;4224854;28;20070;-62
2020/12/21 08:34:14;;;;;;;11.25;5.88;;;18.60;51.70;;;;;;4217711;28;20426;-62
2020/12/21 08:36:36;;;;;;;11.45;6.78;;;18.60;51.60;;;;;;4213140;28;20533;-62
2020/12/21 08:39:13;;;;;;;18.17;8.57;;;18.70;51.80;;;;;;4215418;28;20047;-65
2020/12/21 08:41:40;;;;;;;44.10;22.98;;;18.60;52.10;;;;;;4215154;28;20062;-64
2020/12/21 08:44:01;;;;;;;55.65;29.48;;;18.70;52.30;;;;;;4211165;28;20140;-66
2020/12/21 08:46:22;;;;;;;56.88;30.52;;;18.70;52.40;;;;;;4226786;28;20058;-63
2020/12/21 08:48:44;;;;;;;55.38;28.98;;;18.70;52.50;;;;;;4224955;28;20059;-63
2020/12/21 08:51:05;;;;;;;56.65;30.10;;;18.70;52.50;;;;;;4227639;28;20075;-63
2020/12/21 08:53:25;;;;;;;53.88;29.88;;;18.70;52.50;;;;;;4227097;28;20101;-63
2020/12/21 08:55:47;;;;;;;52.83;27.40;;;18.70;52.30;;;;;;4226505;28;20131;-63
2020/12/21 08:58:06;;;;;;;;;;;18.70;52.20;;;;;;4226959;28;20060;-63
2020/12/21 09:00:30;;;;;;;60.33;26.73;;;18.70;52.00;;;;;;4227495;28;19977;-62
2020/12/21 09:02:50;;;;;;;47.15;24.50;;;18.70;52.50;;;;;;4227272;28;20702;-63
2020/12/21 09:05:13;;;;;;;52.80;25.38;;;18.70;51.80;;;;;;4227526;28;20055;-65
2020/12/21 09:07:33;;;;;;;38.70;19.35;;;18.70;52.00;;;;;;4226282;28;20528;-66
2020/12/21 09:09:53;;;;;;;27.35;12.20;;;18.70;51.10;;;;;;4227238;28;20059;-62
2020/12/21 09:12:14;;;;;;;18.53;10.57;;;18.70;50.10;;;;;;4226127;28;20062;-63
2020/12/21 09:14:37;;;;;;;16.65;10.05;;;18.70;48.90;;;;;;4226901;28;20496;-63
2020/12/21 09:17:01;;;;;;;24.75;10.43;;;18.70;48.20;;;;;;4227033;28;20074;-64
2020/12/21 09:19:21;;;;;;;18.83;8.32;;;18.60;49.50;;;;;;4227199;28;20054;-64
2020/12/21 09:21:43;;;;;;;19.33;8.50;;;18.60;49.30;;;;;;4213830;28;20526;-66
2020/12/21 09:24:06;;;;;;;10.68;5.00;;;18.60;49.60;;;;;;4215886;28;20059;-66
2020/12/21 09:26:29;;;;;;;10.25;4.07;;;18.40;45.90;;;;;;4215579;28;20414;-63
2020/12/21 09:28:52;;;;;;;;;;;18.30;46.20;;;;;;4216056;28;20430;-75
2020/12/21 09:31:14;;;;;;;13.40;4.57;;;18.30;47.60;;;;;;4213074;28;20012;-71
2020/12/21 09:33:38;;;;;;;23.65;4.35;;;18.30;48.00;;;;;;4214505;28;20066;-63
2020/12/21 09:35:58;;;;;;;13.05;3.00;;;18.40;48.40;;;;;;4215387;28;20058;-63
2020/12/21 09:38:19;;;;;;;5.15;2.17;;;18.30;45.10;;;;;;4215579;28;20062;-63
2020/12/21 09:40:39;;;;;;;5.90;2.40;;;18.00;44.60;;;;;;4214741;28;20203;-67
2020/12/21 09:42:59;;;;;;;12.30;2.50;;;17.80;44.30;;;;;;4214351;28;20058;-64
2020/12/21 09:45:19;;;;;;;13.13;2.22;;;17.60;45.10;;;;;;4215501;28;20101;-71
2020/12/21 09:47:44;;;;;;;13.20;2.45;;;17.50;45.30;;;;;;4214965;28;20104;-65
2020/12/21 09:50:06;;;;;;;15.57;2.65;;;17.50;45.10;;;;;;4215572;28;20056;-65
2020/12/21 09:52:29;;;;;;;9.73;2.05;;;17.50;45.90;;;;;;4215235;28;20571;-67
2020/12/21 09:54:51;;;;;;;7.35;1.80;;;17.60;46.60;;;;;;4215590;28;20113;-72
2020/12/21 09:57:11;;;;;;;11.02;2.22;;;17.80;47.40;;;;;;4214380;28;20055;-75
2020/12/21 09:59:32;;;;;;;12.05;2.85;;;18.00;48.10;;;;;;4215558;28;20109;-72
2020/12/21 10:01:54;;;;;;;12.27;2.00;;;18.10;48.20;;;;;;4213939;28;20121;-70
2020/12/21 10:04:17;;;;;;;11.60;2.40;;;18.20;48.30;;;;;;4215239;28;20102;-69
2020/12/21 10:06:38;;;;;;;9.02;1.83;;;18.20;48.50;;;;;;4214342;28;20095;-75
2020/12/21 10:08:58;;;;;;;5.97;1.30;;;18.30;49.00;;;;;;4213815;28;20087;-71
2020/12/21 10:11:19;;;;;;;6.68;1.85;;;18.40;49.00;;;;;;4215288;28;20105;-73
2020/12/21 10:13:39;;;;;;;10.52;1.48;;;18.40;49.20;;;;;;4214293;28;20094;-70
2020/12/21 10:16:02;;;;;;;10.68;1.75;;;18.40;49.40;;;;;;4215245;28;20062;-70
2020/12/21 10:18:22;;;;;;;7.57;1.60;;;18.50;49.60;;;;;;4213687;28;20109;-70
2020/12/21 10:24:20;;;;;;;8.68;2.20;;;18.60;50.10;;;;;;4215117;28;20513;-68
2020/12/21 10:26:41;;;;;;;5.63;1.30;;;18.60;50.40;;;;;;4215069;28;20055;-66
2020/12/21 10:29:02;;;;;;;8.77;1.80;;;18.60;50.20;;;;;;4214875;28;20584;-68
2020/12/21 10:31:23;;;;;;;8.57;1.63;;;18.60;50.10;;;;;;4214381;28;20089;-85
2020/12/21 10:33:43;;;;;;;7.05;1.23;;;18.70;50.00;;;;;;4213690;28;20102;-73
2020/12/21 10:36:06;;;;;;;10.68;1.30;;;18.70;50.00;;;;;;4214800;28;20062;-73
2020/12/21 10:38:27;;;;;;;5.97;1.92;;;18.70;50.10;;;;;;4214960;28;20145;-68
2020/12/21 10:40:48;;;;;;;5.78;1.65;;;18.70;50.10;;;;;;4214283;28;20094;-70
2020/12/21 10:43:08;;;;;;;7.95;2.28;;;18.70;50.20;;;;;;4214851;28;20417;-69
2020/12/21 10:45:28;;;;;;;10.20;1.73;;;18.80;50.20;;;;;;4213227;28;20145;-68
2020/12/21 10:47:51;;;;;;;6.07;1.77;;;18.80;50.50;;;;;;4213914;28;20579;-65
2020/12/21 10:50:11;;;;;;;6.38;1.20;;;18.80;50.50;;;;;;4214938;28;20432;-62
2020/12/21 10:52:34;;;;;;;7.68;1.75;;;18.80;50.80;;;;;;4215357;28;20094;-62
2020/12/21 10:54:55;;;;;;;6.67;1.73;;;18.90;50.50;;;;;;4208424;28;20097;-63
2020/12/21 10:57:16;;;;;;;6.30;1.30;;;18.80;50.10;;;;;;4214839;28;20117;-63
2020/12/21 10:59:36;;;;;;;6.53;1.50;;;18.90;49.80;;;;;;4214555;28;20055;-63
2020/12/21 11:01:59;;;;;;;7.35;1.63;;;18.80;49.80;;;;;;4204323;28;20059;-63
2020/12/21 11:04:19;;;;;;;3.80;1.33;;;18.80;49.90;;;;;;4202503;28;20055;-63
2020/12/21 11:06:42;;;;;;;3.78;1.08;;;18.80;49.90;;;;;;4213339;28;20514;-63
2020/12/21 11:09:05;;;;;;;4.57;2.30;;;18.80;50.00;;;;;;4214180;28;20066;-63
2020/12/21 11:11:27;;;;;;;5.50;1.38;;;18.80;50.00;;;;;;4214167;28;20063;-63
2020/12/21 11:13:50;;;;;;;2.38;1.00;;;18.80;50.00;;;;;;4214400;28;20109;-63
2020/12/21 11:16:11;;;;;;;1.83;0.82;;;18.70;49.80;;;;;;4213170;28;20059;-63
2020/12/21 11:18:31;;;;;;;4.53;1.30;;;18.70;49.80;;;;;;4213258;28;20140;-63
2020/12/21 11:21:05;;;;;;;3.75;1.10;;;18.70;49.80;;;;;;4210674;28;20121;-65
2020/12/21 11:23:30;;;;;;;6.38;1.30;;;18.70;50.00;;;;;;4200074;28;20059;-66
2020/12/21 11:25:51;;;;;;;6.47;1.80;;;18.70;49.10;;;;;;4195589;28;20106;-71
2020/12/21 11:28:11;;;;;;;6.75;2.05;;;18.70;47.70;;;;;;4197155;28;20233;-66
2020/12/21 11:30:36;;;;;;;4.40;1.42;;;18.60;46.10;;;;;;4210134;28;20117;-68
2020/12/21 11:32:56;;;;;;;4.78;1.77;;;18.40;45.70;;;;;;4203073;28;20066;-75
2020/12/21 11:35:16;;;;;;;10.15;3.05;;;18.20;45.50;;;;;;4212413;28;20447;-71
2020/12/21 11:37:39;;;;;;;3.83;1.40;;;18.00;45.20;;;;;;4213811;28;20131;-72
2020/12/21 11:40:04;;;;;;;5.13;1.60;;;18.00;45.50;;;;;;4213958;28;20058;-72
2020/12/21 11:42:27;;;;;;;3.08;1.63;;;18.00;46.30;;;;;;4198225;28;20146;-72
2020/12/21 11:44:50;;;;;;;4.07;1.95;;;18.10;45.50;;;;;;4196678;28;20055;-72
2020/12/21 11:47:12;;;;;;;6.35;1.40;;;18.10;45.70;;;;;;4196936;28;20056;-72
2020/12/21 11:49:32;;;;;;;2.67;1.60;;;18.10;45.30;;;;;;4201740;28;20584;-72
2020/12/21 11:51:55;;;;;;;4.63;1.38;;;18.20;45.70;;;;;;4213204;28;20136;-72
2020/12/21 11:54:15;;;;;;;4.32;2.42;;;18.20;45.50;;;;;;4211114;28;20120;-73
2020/12/21 11:56:38;;;;;;;4.75;1.70;;;18.20;45.40;;;;;;4196793;28;20063;-72
2020/12/21 11:58:58;;;;;;;3.80;1.73;;;18.20;45.40;;;;;;4195507;28;20055;-72
2020/12/21 12:01:21;;;;;;;3.88;1.73;;;18.20;45.40;;;;;;4196147;28;20290;-72
2020/12/21 12:03:43;;;;;;;4.28;1.40;;;18.20;45.50;;;;;;4195514;28;20183;-72
2020/12/21 12:06:03;;;;;;;;;;;18.20;45.60;;;;;;4202543;28;20050;-72
2020/12/21 12:08:24;;;;;;;3.28;1.40;;;18.20;45.60;;;;;;4196717;28;19930;-73
2020/12/21 12:10:44;;;;;;;4.40;1.35;;;18.20;45.50;;;;;;4198182;28;20486;-72
2020/12/21 12:13:05;;;;;;;4.93;2.17;;;18.10;45.60;;;;;;4212993;28;20108;-72
2020/12/21 12:15:27;;;;;;;3.90;1.25;;;18.10;45.70;;;;;;4213025;28;20078;-72
2020/12/21 12:17:50;;;;;;;5.53;1.48;;;18.10;45.80;;;;;;4203742;28;20094;-72
2020/12/21 12:20:12;;;;;;;3.53;1.10;;;18.10;45.80;;;;;;4211839;28;20059;-72
2020/12/21 12:22:32;;;;;;;3.72;1.38;;;18.10;45.70;;;;;;4212236;28;20059;-72
2020/12/21 12:24:53;;;;;;;2.88;1.40;;;18.10;45.90;;;;;;4213398;28;20098;-72
2020/12/21 12:27:13;;;;;;;3.08;1.17;;;18.10;46.40;;;;;;4212217;28;20149;-73
2020/12/21 12:29:34;;;;;;;4.97;1.60;;;18.10;45.90;;;;;;4211841;28;20132;-72
2020/12/21 12:31:56;;;;;;;3.55;1.50;;;18.10;45.90;;;;;;4213096;28;20521;-72
2020/12/21 12:34:19;;;;;;;5.05;2.00;;;18.10;45.80;;;;;;4212447;28;20063;-72
2020/12/21 12:36:43;;;;;;;5.85;1.83;;;18.10;45.80;;;;;;4212962;28;20066;-77
2020/12/21 12:39:05;;;;;;;3.15;1.42;;;18.00;46.00;;;;;;4201712;28;20082;-72
2020/12/21 12:41:25;;;;;;;7.25;1.52;;;18.00;46.00;;;;;;4211942;28;20059;-77
2020/12/21 12:43:46;;;;;;;2.78;1.00;;;18.00;46.20;;;;;;4212916;28;20105;-73
2020/12/21 12:46:07;;;;;;;5.25;1.90;;;18.00;46.60;;;;;;4211597;28;20131;-75
2020/12/21 12:48:31;;;;;;;2.72;1.20;;;18.00;46.70;;;;;;4197538;28;20106;-86
2020/12/21 12:50:54;;;;;;;1.67;0.80;;;18.10;47.10;;;;;;4195138;28;20435;-76
2020/12/21 12:53:17;;;;;;;4.40;1.60;;;18.10;47.20;;;;;;4196021;28;20437;-80
2020/12/21 12:55:38;;;;;;;;;;;18.10;47.40;;;;;;4196346;28;20059;-75
2020/12/21 12:57:58;;;;;;;2.90;1.40;;;18.10;47.60;;;;;;4199061;28;20295;-73
2020/12/21 13:00:18;;;;;;;4.95;1.90;;;18.10;47.60;;;;;;4198356;28;20157;-75
2020/12/21 13:02:42;;;;;;;2.97;0.90;;;18.10;47.80;;;;;;4205869;28;20098;-72
2020/12/21 13:05:02;;;;;;;;;;;18.10;47.90;;;;;;4207069;28;20165;-71
2020/12/21 13:07:25;;;;;;;3.72;0.93;;;18.10;48.80;;;;;;4207249;28;19967;-71
2020/12/21 13:09:50;;;;;;;2.63;1.13;;;18.20;48.50;;;;;;4206578;28;20058;-71
2020/12/21 13:12:11;;;;;;;3.75;1.27;;;18.20;48.50;;;;;;4202786;28;20477;-73
2020/12/21 13:14:31;;;;;;;8.50;2.30;;;18.20;48.70;;;;;;4208213;28;20091;-72
2020/12/21 13:16:51;;;;;;;6.43;1.35;;;18.20;49.30;;;;;;4207217;28;20108;-72
2020/12/21 13:19:14;;;;;;;4.65;1.33;;;18.20;49.10;;;;;;4206804;28;20055;-73
2020/12/21 13:21:37;;;;;;;3.67;1.10;;;18.20;48.90;;;;;;4207988;28;20058;-75
2020/12/21 13:24:00;;;;;;;4.80;1.80;;;18.20;49.10;;;;;;4206308;28;20407;-73
2020/12/21 13:26:23;;;;;;;3.20;1.67;;;18.20;49.30;;;;;;4203371;28;20501;-75
2020/12/21 13:28:47;;;;;;;2.85;1.30;;;18.20;50.20;;;;;;4206244;28;20075;-74
2020/12/21 13:31:08;;;;;;;3.00;1.30;;;18.20;49.90;;;;;;4202270;28;20157;-74
2020/12/21 13:33:29;;;;;;;5.90;1.53;;;18.20;50.00;;;;;;4207620;28;20130;-72
2020/12/21 13:35:49;;;;;;;5.53;1.45;;;18.20;49.90;;;;;;4206027;28;20090;-74
2020/12/21 13:38:10;;;;;;;7.88;1.90;;;18.20;51.00;;;;;;4204407;28;20102;-73
2020/12/21 13:40:30;;;;;;;5.13;1.10;;;18.30;50.60;;;;;;4203577;28;20110;-75
2020/12/21 13:42:51;;;;;;;5.15;1.40;;;18.20;50.40;;;;;;4205699;28;20355;-75
2020/12/21 13:45:12;;;;;;;5.15;1.80;;;18.20;50.40;;;;;;4204966;28;20094;-72
2020/12/21 13:47:33;;;;;;;4.18;1.92;;;18.30;50.70;;;;;;4212620;28;20100;-76
2020/12/21 13:49:56;;;;;;;3.38;1.20;;;18.30;50.90;;;;;;4208867;28;20054;-75
2020/12/21 13:52:16;;;;;;;7.10;1.67;;;18.30;50.60;;;;;;4205790;28;20410;-76
2020/12/21 13:54:36;;;;;;;3.63;1.45;;;18.20;50.60;;;;;;4205303;28;20055;-75
2020/12/21 13:56:59;;;;;;;3.80;1.50;;;18.20;50.50;;;;;;4209223;28;20506;-76
2020/12/21 13:59:20;;;;;;;5.85;1.38;;;18.20;50.50;;;;;;4208114;28;20051;-76
2020/12/21 14:01:41;;;;;;;4.28;1.42;;;18.20;50.40;;;;;;4205384;28;20059;-76
2020/12/21 14:04:04;;;;;;;3.83;1.38;;;18.20;50.30;;;;;;4205831;28;20410;-76
2020/12/21 14:06:25;;;;;;;4.60;1.77;;;18.20;50.30;;;;;;4208469;28;20094;-76
2020/12/21 14:08:50;;;;;;;3.95;1.50;;;18.20;50.30;;;;;;4207459;28;20070;-76
2020/12/21 14:11:13;;;;;;;2.22;1.10;;;18.20;50.20;;;;;;4206702;28;20043;-75
2020/12/21 14:13:38;;;;;;;3.90;1.38;;;18.20;50.20;;;;;;4209349;28;20478;-76
2020/12/21 14:16:12;;;;;;;3.13;1.50;;;18.20;50.20;;;;;;4207367;28;20106;-76
2020/12/21 14:18:33;;;;;;;6.80;1.70;;;18.10;50.10;;;;;;4202461;28;20097;-76
2020/12/21 14:20:56;;;;;;;2.85;1.23;;;18.10;50.00;;;;;;4197098;28;20106;-75
2020/12/21 14:23:22;;;;;;;3.85;1.30;;;18.10;50.00;;;;;;4197819;28;20055;-75
2020/12/21 14:25:43;;;;;;;3.58;1.38;;;18.10;50.00;;;;;;4210165;28;20059;-76
2020/12/21 14:28:06;;;;;;;3.42;1.25;;;18.10;50.00;;;;;;4199091;28;20132;-75
2020/12/21 14:30:26;;;;;;;2.97;1.25;;;18.10;49.90;;;;;;4206116;28;20592;-76
2020/12/21 14:32:48;;;;;;;3.53;1.00;;;18.10;49.90;;;;;;4203580;28;20087;-76
2020/12/21 14:35:10;;;;;;;2.80;1.20;;;18.10;49.90;;;;;;4197024;28;20055;-76
2020/12/21 14:37:33;;;;;;;11.55;2.08;;;18.10;49.90;;;;;;4196506;28;20110;-76
2020/12/21 14:39:57;;;;;;;2.60;1.20;;;18.10;49.80;;;;;;4196234;28;20056;-75
2020/12/21 14:42:17;;;;;;;4.22;1.30;;;18.10;49.90;;;;;;4196842;28;20723;-75
2020/12/21 14:44:40;;;;;;;3.08;1.23;;;18.10;49.80;;;;;;4197609;28;20091;-68
2020/12/21 14:47:05;;;;;;;3.55;1.00;;;18.10;49.90;;;;;;4201687;28;20051;-75
2020/12/21 14:49:27;;;;;;;1.98;1.00;;;18.10;49.80;;;;;;4217562;28;20141;-74
2020/12/21 14:51:51;;;;;;;4.68;1.65;;;18.20;49.80;;;;;;4201500;28;20082;-69
2020/12/21 14:54:12;;;;;;;2.15;1.00;;;18.20;49.80;;;;;;4214454;28;20066;-77
2020/12/21 14:56:33;;;;;;;3.33;1.15;;;18.20;49.90;;;;;;4195829;28;20067;-68
2020/12/21 14:58:54;;;;;;;1.52;0.90;;;18.30;50.00;;;;;;4196542;28;20067;-65
2020/12/21 15:01:14;;;;;;;4.10;1.23;;;18.30;50.00;;;;;;4197578;28;21561;-66
2020/12/21 15:03:38;;;;;;;2.38;1.20;;;18.30;50.00;;;;;;4196230;28;20106;-66
2020/12/21 15:06:01;;;;;;;2.88;1.30;;;18.30;49.90;;;;;;4196120;28;20051;-66
2020/12/21 15:08:22;;;;;;;2.60;0.90;;;18.30;49.90;;;;;;4202315;28;20531;-69
2020/12/21 15:10:43;;;;;;;2.45;1.25;;;18.40;50.20;;;;;;4201635;28;20071;-71
2020/12/21 15:13:06;;;;;;;3.80;1.08;;;18.40;50.30;;;;;;4204451;28;20051;-70
2020/12/21 15:15:26;;;;;;;2.88;1.55;;;18.40;50.50;;;;;;4203694;28;20063;-70
2020/12/21 15:17:49;;;;;;;3.50;1.33;;;18.40;50.30;;;;;;4203308;28;20089;-70
2020/12/21 15:20:09;;;;;;;2.42;1.10;;;18.40;50.30;;;;;;4201382;28;20120;-70
2020/12/21 15:22:36;;;;;;;8.13;1.50;;;18.40;50.20;;;;;;4207837;28;20115;-67
2020/12/21 15:24:59;;;;;;;14.27;1.95;;;18.50;50.80;;;;;;4195195;28;20087;-66
2020/12/21 15:27:22;;;;;;;16.10;2.13;;;18.50;50.70;;;;;;4194208;28;20424;-69
2020/12/21 15:29:51;;;;;;;9.15;1.90;;;18.50;50.90;;;;;;4194961;28;20656;-69
2020/12/21 15:32:11;;;;;;;10.15;1.55;;;18.50;50.90;;;;;;4194013;28;20110;-69
2020/12/21 15:34:31;;;;;;;9.25;2.90;;;18.50;51.00;;;;;;4195656;28;20392;-69
2020/12/21 15:36:54;;;;;;;6.22;2.00;;;18.50;51.40;;;;;;4209509;28;20050;-69
2020/12/21 15:39:15;;;;;;;7.75;2.17;;;18.40;51.20;;;;;;4196132;28;20068;-69
2020/12/21 15:41:40;;;;;;;9.25;2.22;;;18.40;51.20;;;;;;4196429;28;20106;-69
2020/12/21 15:44:03;;;;;;;6.82;2.75;;;18.40;51.10;;;;;;4195684;28;20098;-69
2020/12/21 15:46:30;;;;;;;6.93;2.43;;;18.40;51.10;;;;;;4196538;28;20434;-69
2020/12/21 15:48:50;;;;;;;11.57;3.45;;;18.40;51.10;;;;;;4195438;28;20067;-68
2020/12/21 15:51:23;;;;;;;8.45;2.92;;;18.40;51.20;;;;;;4196518;28;20510;-68
2020/12/21 15:53:53;;;;;;;9.73;3.80;;;18.40;51.40;;;;;;4194886;28;20534;-68
2020/12/21 15:56:17;;;;;;;9.10;3.28;;;18.40;51.60;;;;;;4196232;28;20055;-69
2020/12/21 15:58:43;;;;;;;8.52;3.50;;;18.40;51.60;;;;;;4196848;28;20059;-69
2020/12/21 16:01:19;;;;;;;10.07;4.28;;;18.40;51.70;;;;;;4210082;28;20074;-69
2020/12/21 16:03:42;;;;;;;7.63;3.42;;;18.30;51.60;;;;;;4195736;28;20137;-69
2020/12/21 16:06:12;;;;;;;13.82;4.00;;;18.30;51.90;;;;;;4195783;28;20467;-69
2020/12/21 16:08:45;;;;;;;14.00;7.45;;;18.30;51.90;;;;;;4208886;28;20101;-69
2020/12/21 16:11:08;;;;;;;21.70;9.65;;;18.30;52.00;;;;;;4196326;28;20449;-68
2020/12/21 16:13:35;;;;;;;23.60;11.10;;;18.30;52.00;;;;;;4210119;28;20577;-68
2020/12/21 16:15:56;;;;;;;27.48;12.80;;;18.30;52.50;;;;;;4196746;28;20151;-69
2020/12/21 16:18:23;;;;;;;33.33;14.20;;;18.30;52.00;;;;;;4196235;28;20140;-68
2020/12/21 16:20:43;;;;;;;33.40;13.77;;;18.30;52.00;;;;;;4196649;28;20090;-69
2020/12/21 16:23:06;;;;;;;30.38;15.05;;;18.30;52.60;;;;;;4196725;28;20132;-68
2020/12/21 16:25:27;;;;;;;30.05;13.70;;;18.30;52.10;;;;;;4196662;28;20106;-70
2020/12/21 16:27:50;;;;;;;35.67;15.70;;;18.30;52.20;;;;;;4211553;28;20059;-69
2020/12/21 16:30:26;;;;;;;32.42;14.50;;;18.30;52.20;;;;;;4211837;28;20557;-70
2020/12/21 16:32:47;;;;;;;31.88;15.02;;;18.30;52.10;;;;;;4216770;28;20135;-69
2020/12/21 16:35:10;;;;;;;29.95;15.25;;;18.30;52.20;;;;;;4215764;28;20183;-69
2020/12/21 16:37:33;;;;;;;31.30;16.17;;;18.30;52.30;;;;;;4215555;28;20453;-71
2020/12/21 16:39:54;;;;;;;33.70;16.05;;;18.30;52.30;;;;;;4215662;28;20098;-70
2020/12/21 16:42:15;;;;;;;39.15;15.73;;;18.30;52.30;;;;;;4216514;28;20538;-69
2020/12/21 16:44:38;;;;;;;31.85;13.80;;;18.30;52.40;;;;;;4216978;28;20059;-69
2020/12/21 16:46:59;;;;;;;34.30;15.45;;;18.30;52.40;;;;;;4215730;28;20533;-72
2020/12/21 16:49:27;;;;;;;32.50;14.93;;;18.30;52.30;;;;;;4216395;28;20407;-67
2020/12/21 16:51:50;;;;;;;32.75;14.85;;;18.30;53.00;;;;;;4215350;28;20079;-73
2020/12/21 16:54:16;;;;;;;29.45;14.60;;;18.20;52.50;;;;;;4209859;28;20487;-65
2020/12/21 16:56:37;;;;;;;29.30;15.85;;;18.30;52.50;;;;;;4216573;28;20063;-64
2020/12/21 16:59:06;;;;;;;30.85;14.40;;;18.20;52.50;;;;;;4216436;28;20513;-64
2020/12/21 17:01:32;;;;;;;31.10;14.90;;;18.20;52.70;;;;;;4216323;28;20055;-64
2020/12/21 17:03:53;;;;;;;28.73;13.70;;;18.20;52.70;;;;;;4215538;28;20109;-65
2020/12/21 17:06:16;;;;;;;26.52;13.13;;;18.20;52.70;;;;;;4215451;28;20524;-65
2020/12/21 17:08:42;;;;;;;26.20;12.45;;;18.20;52.80;;;;;;4216116;28;20526;-66
2020/12/21 17:11:02;;;;;;;25.20;13.00;;;18.20;52.80;;;;;;4215133;28;20561;-64
2020/12/21 17:13:22;;;;;;;23.80;12.40;;;18.20;52.70;;;;;;4216080;28;20105;-64
2020/12/21 17:15:42;;;;;;;24.07;12.57;;;18.20;52.80;;;;;;4214424;28;20078;-65
2020/12/21 17:18:03;;;;;;;23.00;12.47;;;18.20;52.70;;;;;;4198558;28;20278;-65
2020/12/21 17:20:24;;;;;;;22.10;11.35;;;18.20;52.70;;;;;;4199429;28;20593;-64
2020/12/21 17:22:44;;;;;;;23.35;11.90;;;18.20;52.60;;;;;;4199217;28;20075;-65
2020/12/21 17:25:07;;;;;;;22.67;11.65;;;18.20;52.60;;;;;;4199437;28;20055;-65
2020/12/21 17:27:30;;;;;;;20.70;10.45;;;18.20;52.50;;;;;;4199060;28;20466;-66
2020/12/21 17:29:51;;;;;;;21.85;10.20;;;18.20;52.50;;;;;;4196767;28;20060;-66
2020/12/21 17:32:13;;;;;;;18.50;9.70;;;18.20;52.60;;;;;;4197060;28;20059;-65
2020/12/21 17:34:34;;;;;;;19.02;9.00;;;18.20;53.00;;;;;;4203059;28;20250;-66
2020/12/21 17:36:59;;;;;;;15.48;8.20;;;18.20;52.50;;;;;;4206073;28;20067;-64
2020/12/21 17:39:20;;;;;;;20.25;9.05;;;18.30;52.50;;;;;;4206719;28;20055;-64
2020/12/21 17:41:43;;;;;;;17.95;8.50;;;18.30;52.40;;;;;;4206073;28;20058;-71
2020/12/21 17:44:11;;;;;;;18.02;8.70;;;18.30;52.50;;;;;;4201643;28;20094;-68
2020/12/21 17:46:37;;;;;;;19.73;9.18;;;18.30;53.00;;;;;;4206003;28;20104;-68
2020/12/21 17:48:58;;;;;;;14.43;7.82;;;18.30;53.20;;;;;;4210401;28;20050;-68
2020/12/21 17:51:19;;;;;;;14.45;6.90;;;18.30;53.00;;;;;;4204784;28;20089;-68
2020/12/21 17:53:40;;;;;;;;;;;18.30;52.80;;;;;;4208210;28;20625;-72
2020/12/21 17:56:07;;;;;;;12.57;5.75;;;18.30;52.80;;;;;;4198743;28;19975;-68
2020/12/21 17:58:27;;;;;;;10.52;6.00;;;18.30;53.10;;;;;;4197700;28;20412;-69
2020/12/21 18:00:48;;;;;;;9.80;5.45;;;18.30;52.80;;;;;;4198303;28;20517;-69
2020/12/21 18:03:09;;;;;;;9.75;5.10;;;18.30;52.70;;;;;;4198490;28;20515;-69
2020/12/21 18:05:36;;;;;;;11.13;6.45;;;18.30;52.70;;;;;;4201388;28;20541;-69
2020/12/21 18:07:59;;;;;;;9.40;5.50;;;18.30;52.70;;;;;;4206516;28;20046;-70
2020/12/21 18:10:21;;;;;;;9.57;5.13;;;18.30;52.70;;;;;;4208648;28;20047;-78
2020/12/21 18:12:42;;;;;;;9.30;5.03;;;18.20;52.60;;;;;;4206382;28;20464;-68
2020/12/21 18:15:03;;;;;;;9.50;5.25;;;18.20;52.60;;;;;;4205137;28;20067;-70
2020/12/21 18:17:33;;;;;;;13.20;5.43;;;18.20;52.60;;;;;;4205648;28;20058;-67
2020/12/21 18:19:55;;;;;;;9.52;4.75;;;18.20;52.50;;;;;;4206071;28;20051;-69
2020/12/21 18:22:20;;;;;;;15.35;5.90;;;18.20;53.10;;;;;;4205227;28;20090;-68
2020/12/21 18:24:42;;;;;;;8.52;4.53;;;18.20;52.50;;;;;;4205233;28;20093;-66
2020/12/21 18:27:07;;;;;;;10.80;5.10;;;18.20;52.60;;;;;;4202460;28;20063;-66
2020/12/21 18:29:28;;;;;;;10.68;5.43;;;18.20;52.50;;;;;;4204179;28;20451;-66
2020/12/21 18:31:51;;;;;;;11.10;5.80;;;18.20;52.70;;;;;;4203384;28;20063;-66
2020/12/21 18:34:11;;;;;;;11.60;5.20;;;18.20;53.10;;;;;;4205502;28;20056;-66
2020/12/21 18:36:34;;;;;;;12.10;5.13;;;18.30;53.70;;;;;;4210531;28;20058;-66
2020/12/21 18:38:54;;;;;;;8.38;4.50;;;18.30;53.60;;;;;;4204325;28;20066;-66
2020/12/21 18:41:14;;;;;;;12.40;5.13;;;18.40;53.70;;;;;;4208225;28;20154;-66
2020/12/21 18:43:35;;;;;;;9.38;5.20;;;18.40;53.70;;;;;;4213895;28;20518;-66
2020/12/21 18:45:58;;;;;;;7.40;4.10;;;18.40;53.70;;;;;;4213636;28;20054;-66
2020/12/21 18:48:32;;;;;;;10.32;4.18;;;18.40;53.70;;;;;;4212647;28;20131;-66
2020/12/21 18:50:53;;;;;;;7.78;4.03;;;18.40;53.60;;;;;;4213535;28;20090;-66
2020/12/21 18:53:13;;;;;;;7.53;3.85;;;18.30;53.50;;;;;;4212929;28;20462;-66
2020/12/21 18:55:37;;;;;;;7.50;4.27;;;18.40;53.50;;;;;;4213137;28;20101;-66
2020/12/21 18:58:01;;;;;;;8.85;3.75;;;18.30;53.40;;;;;;4213505;28;20063;-66
2020/12/21 19:00:26;;;;;;;7.57;3.55;;;18.40;53.40;;;;;;4226773;28;20434;-66
2020/12/21 19:03:03;;;;;;;7.50;2.95;;;18.40;53.40;;;;;;4212458;28;20062;-66
2020/12/21 19:05:26;;;;;;;5.30;3.10;;;18.30;53.20;;;;;;4212385;28;20067;-66
2020/12/21 19:07:53;;;;;;;7.35;3.53;;;18.30;53.20;;;;;;4212590;28;20109;-66
2020/12/21 19:10:13;;;;;;;6.88;3.20;;;18.30;53.10;;;;;;4213171;28;20085;-66
2020/12/21 19:12:41;;;;;;;5.67;3.03;;;18.30;53.10;;;;;;4213235;28;20102;-66
2020/12/21 19:15:01;;;;;;;8.20;3.35;;;18.30;53.10;;;;;;4213229;28;20638;-66
2020/12/21 19:17:22;;;;;;;5.65;3.53;;;18.30;53.00;;;;;;4213275;28;20054;-66
2020/12/21 19:19:45;;;;;;;5.25;2.85;;;18.30;53.00;;;;;;4200834;28;20096;-65
2020/12/21 19:22:05;;;;;;;;;;;18.40;53.10;;;;;;4200640;28;20050;-67
2020/12/21 19:24:28;;;;;;;7.53;2.72;;;18.40;53.10;;;;;;4204383;28;20450;-70
2020/12/21 19:26:52;;;;;;;8.70;2.83;;;18.50;52.90;;;;;;4204201;28;20083;-66
2020/12/21 19:29:32;;;;;;;7.93;3.20;;;18.50;53.10;;;;;;4202930;28;20062;-67
2020/12/21 19:31:59;;;;;;;6.28;2.67;;;18.50;53.30;;;;;;4204371;28;20086;-67
2020/12/21 19:34:23;;;;;;;7.18;2.83;;;18.50;53.20;;;;;;4204196;28;20101;-68
2020/12/21 19:36:46;;;;;;;7.15;2.72;;;18.50;53.10;;;;;;4203687;28;20058;-68
2020/12/21 19:39:07;;;;;;;13.50;3.22;;;18.50;53.10;;;;;;4206452;28;20152;-67
2020/12/21 19:41:29;;;;;;;6.07;2.92;;;18.60;53.10;;;;;;4204595;28;20755;-68
2020/12/21 19:43:51;;;;;;;6.38;2.78;;;18.60;53.10;;;;;;4205395;28;20086;-69
2020/12/21 19:46:11;;;;;;;7.00;2.72;;;18.60;53.10;;;;;;4203410;28;20059;-67
2020/12/21 19:48:42;;;;;;;7.63;2.67;;;18.60;53.10;;;;;;4205524;28;20098;-67
2020/12/21 19:51:10;;;;;;;6.20;2.70;;;18.60;53.10;;;;;;4204451;28;20139;-67
2020/12/21 19:53:33;;;;;;;7.88;2.70;;;18.60;53.10;;;;;;4202202;28;20058;-68
2020/12/21 19:55:56;;;;;;;5.05;2.53;;;18.60;53.10;;;;;;4205969;28;20102;-69
2020/12/21 19:58:18;;;;;;;8.07;2.60;;;18.60;53.00;;;;;;4203434;28;20431;-68
2020/12/21 20:00:42;;;;;;;5.65;2.30;;;18.60;53.10;;;;;;4202578;28;20170;-68
2020/12/21 20:03:02;;;;;;;4.85;2.30;;;18.70;53.20;;;;;;4203069;28;20051;-68
2020/12/21 20:05:25;;;;;;;9.63;3.20;;;18.70;53.10;;;;;;4203187;28;20106;-68
2020/12/21 20:07:52;;;;;;;6.38;2.75;;;18.70;53.60;;;;;;4204958;28;20055;-66
2020/12/21 20:10:21;;;;;;;6.90;2.58;;;18.70;52.90;;;;;;4203289;28;20502;-66
2020/12/21 20:12:42;;;;;;;5.78;2.72;;;18.70;53.00;;;;;;4203093;28;20108;-68
2020/12/21 20:15:09;;;;;;;7.03;2.95;;;18.70;52.80;;;;;;4203499;28;20068;-69
2020/12/21 20:17:30;;;;;;;6.15;2.40;;;18.70;52.90;;;;;;4204931;28;20144;-69
2020/12/21 20:19:50;;;;;;;6.27;2.53;;;18.70;53.00;;;;;;4204131;28;20054;-68
2020/12/21 20:22:11;;;;;;;8.10;2.85;;;18.70;52.90;;;;;;4199795;28;20098;-70
2020/12/21 20:24:32;;;;;;;5.90;2.88;;;18.80;53.10;;;;;;4202648;28;20585;-78
2020/12/21 20:26:57;;;;;;;9.73;2.78;;;18.70;53.00;;;;;;4203332;28;20502;-69
2020/12/21 20:29:21;;;;;;;9.07;2.85;;;18.80;52.90;;;;;;4203105;28;20084;-70
2020/12/21 20:31:42;;;;;;;7.95;3.05;;;18.80;52.90;;;;;;4205056;28;20079;-70